createdAt,value
2018-08-25T00:00:44.819Z,18.22
2018-08-25T00:03:14.046Z,18.25
2018-08-25T00:05:43.221Z,18.20
2018-08-25T00:08:12.505Z,18.16
2018-08-25T00:10:41.734Z,18.13
2018-08-25T00:13:11.440Z,18.10
2018-08-25T00:15:40.643Z,18.13
2018-08-25T00:18:10.708Z,18.10
2018-08-25T00:20:40.206Z,18.10
2018-08-25T00:23:09.590Z,18.15
2018-08-25T00:25:38.856Z,18.16
2018-08-25T00:28:08.073Z,18.05
2018-08-25T00:30:42.539Z,18.14
2018-08-25T00:33:11.710Z,18.09
2018-08-25T00:35:40.963Z,18.06
2018-08-25T00:38:10.235Z,18.04
2018-08-25T00:40:39.449Z,18.07
2018-08-25T00:43:08.878Z,18.03
2018-08-25T00:45:38.223Z,18.01
2018-08-25T00:48:07.611Z,17.99
2018-08-25T00:50:36.940Z,18.02
2018-08-25T00:53:06.609Z,18.10
2018-08-25T00:55:36.012Z,18.03
2018-08-25T00:58:05.432Z,18.03
2018-08-25T01:00:34.905Z,17.98
2018-08-25T01:03:04.247Z,18.05
2018-08-25T01:05:33.431Z,18.01
2018-08-25T01:08:02.760Z,18.13
2018-08-25T01:10:31.997Z,18.05
2018-08-25T01:13:01.289Z,18.00
2018-08-25T01:15:30.561Z,17.98
2018-08-25T01:17:59.965Z,17.96
2018-08-25T01:20:29.202Z,17.94
2018-08-25T01:22:58.474Z,17.90
2018-08-25T01:25:27.698Z,17.97
2018-08-25T01:27:56.999Z,17.99
2018-08-25T01:30:26.443Z,17.95
2018-08-25T01:32:55.627Z,18.02
2018-08-25T01:35:24.776Z,17.91
2018-08-25T01:37:54.331Z,17.87
2018-08-25T01:40:23.555Z,17.89
2018-08-25T01:42:52.763Z,17.85
2018-08-25T01:45:22.131Z,17.84
2018-08-25T01:47:52.083Z,17.82
2018-08-25T01:50:21.277Z,17.81
2018-08-25T01:52:50.451Z,17.79
2018-08-25T01:55:19.690Z,17.79
2018-08-25T01:57:48.875Z,17.82
2018-08-25T02:00:18.274Z,17.84
2018-08-25T02:02:47.594Z,17.84
2018-08-25T02:05:16.685Z,17.78
2018-08-25T02:07:45.927Z,17.75
2018-08-25T02:10:15.092Z,17.76
2018-08-25T02:12:44.286Z,17.70
2018-08-25T02:15:13.471Z,17.68
2018-08-25T02:17:42.677Z,17.67
2018-08-25T02:20:11.837Z,17.75
2018-08-25T02:22:41.009Z,17.71
2018-08-25T02:25:11.110Z,17.54
2018-08-25T02:27:40.263Z,17.70
2018-08-25T02:30:09.479Z,17.69
2018-08-25T02:32:38.825Z,17.77
2018-08-25T02:35:08.262Z,17.68
2018-08-25T02:37:37.468Z,17.68
2018-08-25T02:40:06.862Z,17.70
2018-08-25T02:42:36.118Z,17.67
2018-08-25T02:45:05.541Z,17.61
2018-08-25T02:47:35.258Z,17.58
2018-08-25T02:50:04.603Z,17.55
2018-08-25T02:52:33.809Z,17.59
2018-08-25T02:55:03.015Z,17.55
2018-08-25T02:57:32.173Z,17.51
2018-08-25T03:00:01.795Z,17.59
2018-08-25T03:02:31.609Z,17.52
2018-08-25T03:05:00.820Z,17.52
2018-08-25T03:07:29.989Z,17.49
2018-08-25T03:09:59.276Z,17.46
2018-08-25T03:12:28.545Z,17.49
2018-08-25T03:14:57.728Z,17.47
2018-08-25T03:17:26.889Z,17.39
2018-08-25T03:19:56.139Z,17.35
2018-08-25T03:22:25.378Z,17.44
2018-08-25T03:24:54.580Z,17.38
2018-08-25T03:27:23.765Z,17.37
2018-08-25T03:29:52.991Z,17.31
2018-08-25T03:32:22.234Z,17.29
2018-08-25T03:34:51.387Z,17.37
2018-08-25T03:37:20.580Z,17.33
2018-08-25T03:39:49.765Z,17.21
2018-08-25T03:42:18.965Z,17.12
2018-08-25T03:44:48.247Z,17.14
2018-08-25T03:47:17.421Z,17.18
2018-08-25T03:49:46.624Z,17.19
2018-08-25T03:52:15.847Z,17.09
2018-08-25T03:54:45.023Z,17.08
2018-08-25T03:57:14.207Z,17.06
2018-08-25T03:59:43.537Z,17.08
2018-08-25T04:02:12.736Z,17.04
2018-08-25T04:04:41.936Z,17.03
2018-08-25T04:07:11.318Z,17.01
2018-08-25T04:09:40.897Z,16.99
2018-08-25T04:12:10.081Z,16.99
2018-08-25T04:14:39.318Z,17.03
2018-08-25T04:17:08.626Z,17.09
2018-08-25T04:19:37.957Z,17.09
2018-08-25T04:22:07.220Z,17.08
2018-08-25T04:24:36.307Z,17.03
2018-08-25T04:27:05.816Z,17.07
2018-08-25T04:29:34.985Z,17.03
2018-08-25T04:32:04.181Z,17.02
2018-08-25T04:34:33.325Z,17.04
2018-08-25T04:37:02.520Z,17.03
2018-08-25T04:39:31.690Z,17.05
2018-08-25T04:42:00.810Z,17.08
2018-08-25T04:44:29.951Z,17.08
2018-08-25T04:46:59.093Z,17.07
2018-08-25T04:49:28.289Z,17.17
2018-08-25T04:51:57.536Z,17.12
2018-08-25T04:54:26.700Z,17.12
2018-08-25T04:56:55.875Z,17.16
2018-08-25T04:59:25.037Z,17.18
2018-08-25T05:01:54.334Z,17.16
2018-08-25T05:04:23.376Z,17.18
2018-08-25T05:06:52.666Z,17.22
2018-08-25T05:09:21.916Z,17.22
2018-08-25T05:11:51.065Z,17.24
2018-08-25T05:14:23.678Z,17.24
2018-08-25T05:16:52.866Z,17.19
2018-08-25T05:19:22.082Z,17.31
2018-08-25T05:21:51.298Z,17.34
2018-08-25T05:24:20.439Z,17.36
2018-08-25T05:26:49.745Z,17.40
2018-08-25T05:29:18.946Z,17.45
2018-08-25T05:31:48.382Z,17.52
2018-08-25T05:34:17.561Z,17.58
2018-08-25T05:36:46.767Z,17.61
2018-08-25T05:39:15.912Z,17.66
2018-08-25T05:41:45.432Z,17.71
2018-08-25T05:44:14.730Z,17.71
2018-08-25T05:46:43.819Z,17.74
2018-08-25T05:49:12.978Z,17.73
2018-08-25T05:51:42.158Z,17.76
2018-08-25T05:54:11.462Z,17.81
2018-08-25T05:56:40.661Z,17.78
2018-08-25T05:59:09.985Z,17.86
2018-08-25T06:01:39.174Z,17.84
2018-08-25T06:04:08.442Z,17.84
2018-08-25T06:06:37.877Z,17.87
2018-08-25T06:09:10.156Z,17.84
2018-08-25T06:11:39.854Z,17.91
2018-08-25T06:14:09.038Z,17.97
2018-08-25T06:16:38.225Z,18.01
2018-08-25T06:19:07.897Z,18.10
2018-08-25T06:21:37.069Z,18.16
2018-08-25T06:24:06.339Z,18.21
2018-08-25T06:26:35.516Z,18.34
2018-08-25T06:29:04.785Z,18.42
2018-08-25T06:31:34.329Z,18.48
2018-08-25T06:34:03.774Z,18.60
2018-08-25T06:36:32.947Z,18.61
2018-08-25T06:39:02.128Z,18.60
2018-08-25T06:41:31.362Z,18.56
2018-08-25T06:44:00.507Z,18.50
2018-08-25T06:46:29.750Z,18.56
2018-08-25T06:48:58.975Z,18.64
2018-08-25T06:51:28.142Z,18.58
2018-08-25T06:53:57.326Z,18.63
2018-08-25T06:56:26.561Z,18.65
2018-08-25T06:58:55.781Z,18.49
2018-08-25T07:01:24.959Z,18.37
2018-08-25T07:03:54.417Z,18.29
2018-08-25T07:06:23.809Z,18.16
2018-08-25T07:08:53.530Z,18.05
2018-08-25T07:11:22.717Z,17.98
2018-08-25T07:13:51.853Z,17.95
2018-08-25T07:16:22.156Z,17.96
2018-08-25T07:18:51.527Z,17.92
2018-08-25T07:21:21.969Z,17.85
2018-08-25T07:23:51.538Z,17.96
2018-08-25T07:26:20.707Z,17.93
2018-08-25T07:28:49.882Z,17.89
2018-08-25T07:31:19.127Z,17.83
2018-08-25T07:33:48.937Z,17.86
2018-08-25T07:36:18.149Z,17.82
2018-08-25T07:38:47.385Z,17.85
2018-08-25T07:41:16.519Z,17.89
2018-08-25T07:43:45.633Z,18.00
2018-08-25T07:46:14.819Z,18.03
2018-08-25T07:48:44.518Z,17.92
2018-08-25T07:51:13.590Z,17.79
2018-08-25T07:53:42.850Z,17.79
2018-08-25T07:56:12.066Z,17.74
2018-08-25T07:58:41.209Z,17.71
2018-08-25T08:01:10.497Z,17.71
2018-08-25T08:03:39.739Z,17.75
2018-08-25T08:06:08.971Z,17.69
2018-08-25T08:08:38.172Z,17.79
2018-08-25T08:11:07.631Z,17.85
2018-08-25T08:13:36.798Z,17.82
2018-08-25T08:16:06.490Z,17.82
2018-08-25T08:18:35.848Z,17.76
2018-08-25T08:21:05.244Z,17.70
2018-08-25T08:23:34.570Z,17.72
2018-08-25T08:26:03.851Z,17.68
2018-08-25T08:28:33.134Z,17.77
2018-08-25T08:31:02.323Z,17.79
2018-08-25T08:33:31.577Z,17.77
2018-08-25T08:36:00.807Z,17.76
2018-08-25T08:38:32.533Z,17.76
2018-08-25T08:41:01.846Z,17.78
2018-08-25T08:43:31.034Z,17.78
2018-08-25T08:46:00.297Z,17.75
2018-08-25T08:48:29.607Z,17.75
2018-08-25T08:50:59.344Z,17.73
2018-08-25T08:53:28.616Z,17.71
2018-08-25T08:55:57.800Z,17.68
2018-08-25T08:58:27.159Z,17.69
2018-08-25T09:00:56.518Z,17.71
2018-08-25T09:03:25.727Z,17.77
2018-08-25T09:05:54.894Z,18.02
2018-08-25T09:08:24.080Z,17.88
2018-08-25T09:10:53.264Z,17.85
2018-08-25T09:13:22.553Z,17.89
2018-08-25T09:15:51.807Z,18.07
2018-08-25T09:18:20.962Z,18.11
2018-08-25T09:20:50.163Z,18.16
2018-08-25T09:23:19.474Z,18.30
2018-08-25T09:25:48.766Z,18.45
2018-08-25T09:28:17.993Z,18.60
2018-08-25T09:30:47.181Z,18.67
2018-08-25T09:33:16.372Z,18.86
2018-08-25T09:35:45.597Z,18.92
2018-08-25T09:38:15.145Z,18.97
2018-08-25T09:40:44.333Z,19.08
2018-08-25T09:43:13.500Z,18.93
2018-08-25T09:45:42.892Z,18.97
2018-08-25T09:48:12.061Z,19.10
2018-08-25T09:50:41.267Z,19.19
2018-08-25T09:53:10.495Z,19.24
2018-08-25T09:55:39.731Z,19.32
2018-08-25T09:58:08.996Z,19.32
2018-08-25T10:00:38.244Z,19.38
2018-08-25T10:03:07.810Z,19.26
2018-08-25T10:05:36.998Z,19.15
2018-08-25T10:08:06.278Z,19.09
2018-08-25T10:10:35.571Z,19.09
2018-08-25T10:13:04.774Z,19.21
2018-08-25T10:15:33.965Z,19.32
2018-08-25T10:18:04.159Z,19.30
2018-08-25T10:20:33.866Z,19.28
2018-08-25T10:23:03.102Z,19.29
2018-08-25T10:25:32.585Z,19.25
2018-08-25T10:28:01.783Z,19.24
2018-08-25T10:30:31.030Z,19.28
2018-08-25T10:33:00.338Z,19.32
2018-08-25T10:35:29.512Z,19.34
2018-08-25T10:37:58.756Z,19.34
2018-08-25T10:40:27.933Z,19.40
2018-08-25T10:42:57.180Z,19.60
2018-08-25T10:45:26.392Z,19.71
2018-08-25T10:47:55.843Z,19.65
2018-08-25T10:50:25.553Z,19.59
2018-08-25T10:52:54.723Z,19.57
2018-08-25T10:55:23.941Z,19.39
2018-08-25T10:57:53.153Z,19.37
2018-08-25T11:00:22.463Z,19.36
2018-08-25T11:02:51.581Z,19.33
2018-08-25T11:05:20.785Z,19.38
2018-08-25T11:07:50.021Z,19.41
2018-08-25T11:10:19.308Z,19.38
2018-08-25T11:12:48.586Z,19.39
2018-08-25T11:15:17.835Z,19.43
2018-08-25T11:17:47.255Z,19.48
2018-08-25T11:20:17.214Z,19.49
2018-08-25T11:22:46.397Z,19.50
2018-08-25T11:25:15.562Z,19.53
2018-08-25T11:27:44.813Z,19.55
2018-08-25T11:30:14.295Z,19.64
2018-08-25T11:32:43.559Z,19.70
2018-08-25T11:35:12.738Z,19.79
2018-08-25T11:37:41.977Z,19.94
2018-08-25T11:40:11.748Z,20.07
2018-08-25T11:42:40.933Z,20.24
2018-08-25T11:45:12.690Z,20.37
2018-08-25T11:47:41.912Z,20.37
2018-08-25T11:50:12.087Z,20.44
2018-08-25T11:52:41.629Z,20.40
2018-08-25T11:55:11.622Z,20.25
2018-08-25T11:57:40.836Z,20.18
2018-08-25T12:00:10.570Z,20.07
2018-08-25T12:02:40.269Z,19.91
2018-08-25T12:05:09.533Z,19.84
2018-08-25T12:07:39.798Z,19.71
2018-08-25T12:10:09.265Z,19.61
2018-08-25T12:12:42.964Z,19.60
2018-08-25T12:15:15.344Z,19.57
2018-08-25T12:17:44.774Z,19.51
2018-08-25T12:20:15.422Z,19.56
2018-08-25T12:22:44.669Z,19.63
2018-08-25T12:25:13.862Z,19.70
2018-08-25T12:27:43.595Z,19.75
2018-08-25T12:30:13.067Z,19.76
2018-08-25T12:32:42.325Z,19.80
2018-08-25T12:35:11.814Z,19.82
2018-08-25T12:37:41.028Z,19.88
2018-08-25T12:40:13.773Z,19.87
2018-08-25T12:42:43.437Z,19.78
2018-08-25T12:45:13.330Z,19.69
2018-08-25T12:47:42.428Z,19.66
2018-08-25T12:50:11.871Z,19.64
2018-08-25T12:52:42.490Z,19.71
2018-08-25T12:55:12.227Z,19.88
2018-08-25T12:57:41.861Z,20.01
2018-08-25T13:00:11.829Z,20.04
2018-08-25T13:02:41.031Z,20.11
2018-08-25T13:05:11.062Z,20.20
2018-08-25T13:07:41.532Z,20.31
2018-08-25T13:10:10.817Z,20.41
2018-08-25T13:12:40.627Z,20.46
2018-08-25T13:15:10.746Z,20.53
2018-08-25T13:17:40.490Z,20.46
2018-08-25T13:20:10.617Z,20.44
2018-08-25T13:22:39.961Z,20.39
2018-08-25T13:25:09.190Z,20.47
2018-08-25T13:27:38.708Z,20.54
2018-08-25T13:30:07.970Z,20.49
2018-08-25T13:32:37.199Z,20.39
2018-08-25T13:35:06.784Z,20.37
2018-08-25T13:37:38.032Z,20.29
2018-08-25T13:40:07.658Z,20.24
2018-08-25T13:42:36.883Z,20.21
2018-08-25T13:45:07.750Z,20.06
2018-08-25T13:47:37.071Z,19.92
2018-08-25T13:50:06.811Z,19.72
2018-08-25T13:52:36.157Z,19.64
2018-08-25T13:55:05.600Z,19.62
2018-08-25T13:57:35.026Z,19.59
2018-08-25T14:00:04.293Z,19.61
2018-08-25T14:02:33.505Z,19.57
2018-08-25T14:05:03.812Z,19.56
2018-08-25T14:07:33.299Z,19.52
2018-08-25T14:10:03.344Z,19.46
2018-08-25T14:12:32.548Z,19.45
2018-08-25T14:15:01.814Z,19.45
2018-08-25T14:17:31.816Z,19.37
2018-08-25T14:20:01.280Z,19.34
2018-08-25T14:22:30.480Z,19.30
2018-08-25T14:25:00.385Z,19.31
2018-08-25T14:27:29.697Z,19.33
2018-08-25T14:29:58.907Z,19.35
2018-08-25T14:32:28.197Z,19.33
2018-08-25T14:34:58.567Z,19.31
2018-08-25T14:37:27.805Z,19.26
2018-08-25T14:39:57.915Z,19.21
2018-08-25T14:42:27.953Z,19.15
2018-08-25T14:44:57.230Z,19.11
2018-08-25T14:47:26.412Z,19.11
2018-08-25T14:49:55.854Z,19.13
2018-08-25T14:52:26.074Z,19.11
2018-08-25T14:54:55.256Z,19.04
2018-08-25T14:57:24.697Z,18.93
2018-08-25T14:59:53.977Z,18.91
2018-08-25T15:02:23.581Z,18.88
2018-08-25T15:04:52.955Z,18.90
2018-08-25T15:07:22.280Z,18.94
2018-08-25T15:09:51.759Z,18.97
2018-08-25T15:12:20.959Z,18.94
2018-08-25T15:14:50.203Z,18.87
2018-08-25T15:17:19.542Z,18.77
2018-08-25T15:19:48.712Z,18.72
2018-08-25T15:22:17.899Z,18.63
2018-08-25T15:24:47.995Z,18.63
2018-08-25T15:27:17.354Z,18.57
2018-08-25T15:29:46.684Z,18.55
2018-08-25T15:32:15.852Z,18.51
2018-08-25T15:34:45.320Z,18.51
2018-08-25T15:37:14.592Z,18.46
2018-08-25T15:39:43.817Z,18.44
2018-08-25T15:42:13.128Z,18.40
2018-08-25T15:44:42.414Z,18.38
2018-08-25T15:47:12.814Z,18.31
2018-08-25T15:49:42.121Z,18.27
2018-08-25T15:52:11.557Z,18.25
2018-08-25T15:54:41.070Z,18.20
2018-08-25T15:57:11.716Z,18.15
2018-08-25T15:59:41.007Z,18.07
2018-08-25T16:02:10.893Z,18.00
2018-08-25T16:04:40.185Z,17.94
2018-08-25T16:07:09.470Z,17.89
2018-08-25T16:09:38.746Z,17.81
2018-08-25T16:12:11.262Z,17.81
2018-08-25T16:14:40.407Z,17.75
2018-08-25T16:17:09.752Z,17.71
2018-08-25T16:19:39.003Z,17.64
2018-08-25T16:22:08.129Z,17.59
2018-08-25T16:24:38.235Z,17.50
2018-08-25T16:27:07.756Z,17.36
2018-08-25T16:29:37.822Z,17.22
2018-08-25T16:32:06.993Z,17.08
2018-08-25T16:34:36.143Z,17.01
2018-08-25T16:37:05.355Z,16.97
2018-08-25T16:39:34.626Z,16.87
2018-08-25T16:42:03.773Z,16.82
2018-08-25T16:44:32.969Z,16.76
2018-08-25T16:47:02.195Z,16.75
2018-08-25T16:49:31.476Z,16.75
2018-08-25T16:52:00.822Z,16.68
2018-08-25T16:54:30.148Z,16.65
2018-08-25T16:56:59.385Z,16.58
2018-08-25T16:59:29.154Z,16.53
2018-08-25T17:01:58.425Z,16.52
2018-08-25T17:04:28.432Z,16.43
2018-08-25T17:06:57.636Z,16.38
2018-08-25T17:09:26.812Z,16.31
2018-08-25T17:11:55.999Z,16.30
2018-08-25T17:14:25.157Z,16.22
2018-08-25T17:16:54.292Z,16.16
2018-08-25T17:19:23.734Z,16.11
2018-08-25T17:21:53.003Z,16.03
2018-08-25T17:24:22.125Z,16.05
2018-08-25T17:26:57.464Z,16.02
2018-08-25T17:29:26.597Z,15.98
2018-08-25T17:31:55.791Z,15.84
2018-08-25T17:34:25.846Z,15.76
2018-08-25T17:36:55.048Z,15.72
2018-08-25T17:39:24.196Z,15.72
2018-08-25T17:41:53.393Z,15.70
2018-08-25T17:44:22.542Z,15.64
2018-08-25T17:46:51.810Z,15.63
2018-08-25T17:49:21.913Z,15.64
2018-08-25T17:51:51.685Z,15.59
2018-08-25T17:54:20.865Z,15.52
2018-08-25T17:56:52.099Z,15.49
2018-08-25T17:59:22.154Z,15.56
2018-08-25T18:01:52.381Z,15.65
2018-08-25T18:04:21.598Z,15.51
2018-08-25T18:06:51.374Z,15.47
2018-08-25T18:09:21.092Z,15.44
2018-08-25T18:11:50.253Z,15.38
2018-08-25T18:14:19.581Z,15.38
2018-08-25T18:16:49.701Z,15.39
2018-08-25T18:19:19.304Z,15.42
2018-08-25T18:21:48.474Z,15.36
2018-08-25T18:24:17.922Z,15.36
2018-08-25T18:26:47.117Z,15.33
2018-08-25T18:29:16.295Z,15.27
2018-08-25T18:31:45.482Z,15.27
2018-08-25T18:34:14.824Z,15.26
2018-08-25T18:36:44.014Z,15.19
2018-08-25T18:39:14.305Z,15.19
2018-08-25T18:41:44.737Z,15.24
2018-08-25T18:44:14.514Z,15.21
2018-08-25T18:46:43.785Z,15.18
2018-08-25T18:49:14.209Z,15.18
2018-08-25T18:51:43.422Z,15.15
2018-08-25T18:54:19.246Z,15.13
2018-08-25T18:56:48.607Z,15.10
2018-08-25T18:59:17.924Z,15.06
2018-08-25T19:01:47.446Z,15.08
2018-08-25T19:04:16.896Z,15.05
2018-08-25T19:06:46.166Z,15.07
2018-08-25T19:09:15.595Z,15.02
2018-08-25T19:11:44.740Z,15.01
2018-08-25T19:14:14.093Z,15.03
2018-08-25T19:16:43.492Z,15.04
2018-08-25T19:19:12.755Z,15.02
2018-08-25T19:21:42.250Z,15.03
2018-08-25T19:24:11.521Z,15.05
2018-08-25T19:26:40.689Z,15.03
2018-08-25T19:29:09.881Z,15.03
2018-08-25T19:31:39.109Z,15.03
2018-08-25T19:34:08.286Z,14.97
2018-08-25T19:36:37.440Z,14.96
2018-08-25T19:39:09.189Z,14.96
2018-08-25T19:41:38.396Z,15.01
2018-08-25T19:44:07.522Z,14.90
2018-08-25T19:46:36.770Z,14.85
2018-08-25T19:49:06.262Z,14.82
2018-08-25T19:51:35.425Z,14.82
2018-08-25T19:54:04.829Z,14.77
2018-08-25T19:56:33.965Z,14.78
2018-08-25T19:59:03.334Z,14.73
2018-08-25T20:01:32.510Z,14.71
2018-08-25T20:04:01.671Z,14.70
2018-08-25T20:06:30.862Z,14.69
2018-08-25T20:09:00.017Z,14.64
2018-08-25T20:11:29.190Z,14.61
2018-08-25T20:13:58.354Z,14.55
2018-08-25T20:16:27.505Z,14.49
2018-08-25T20:18:56.674Z,14.45
2018-08-25T20:21:25.865Z,14.45
2018-08-25T20:23:55.015Z,14.38
2018-08-25T20:26:24.278Z,14.41
2018-08-25T20:28:53.545Z,14.37
2018-08-25T20:31:22.886Z,14.35
2018-08-25T20:33:52.211Z,14.31
2018-08-25T20:36:21.524Z,14.29
2018-08-25T20:38:51.037Z,14.26
2018-08-25T20:41:20.190Z,14.23
2018-08-25T20:43:49.325Z,14.22
2018-08-25T20:46:18.514Z,14.18
2018-08-25T20:48:47.687Z,14.20
2018-08-25T20:51:17.526Z,14.21
2018-08-25T20:53:47.845Z,14.24
2018-08-25T20:56:16.985Z,14.22
2018-08-25T20:58:46.102Z,14.21
2018-08-25T21:01:15.260Z,14.19
2018-08-25T21:03:44.420Z,14.19
2018-08-25T21:06:13.601Z,14.19
2018-08-25T21:08:42.745Z,14.17
2018-08-25T21:11:11.947Z,14.19
2018-08-25T21:13:41.125Z,14.19
2018-08-25T21:16:10.278Z,14.21
2018-08-25T21:18:39.637Z,14.22
2018-08-25T21:21:08.969Z,14.21
2018-08-25T21:23:38.155Z,14.18
2018-08-25T21:26:07.730Z,14.16
2018-08-25T21:28:36.869Z,14.18
2018-08-25T21:31:06.384Z,14.14
2018-08-25T21:33:35.547Z,14.15
2018-08-25T21:36:04.681Z,14.13
2018-08-25T21:38:33.854Z,14.10
2018-08-25T21:41:03.035Z,14.06
2018-08-25T21:43:32.152Z,14.04
2018-08-25T21:46:01.316Z,14.03
2018-08-25T21:48:30.461Z,14.02
2018-08-25T21:50:59.724Z,13.95
2018-08-25T21:53:28.942Z,13.93
2018-08-25T21:55:58.070Z,13.91
2018-08-25T21:58:27.293Z,13.86
2018-08-25T22:00:57.498Z,13.90
2018-08-25T22:03:27.856Z,13.83
2018-08-25T22:05:57.655Z,13.77
2018-08-25T22:08:26.820Z,13.76
2018-08-25T22:10:55.973Z,13.75
2018-08-25T22:13:25.112Z,13.76
2018-08-25T22:15:54.393Z,13.75
2018-08-25T22:18:23.517Z,13.68
2018-08-25T22:20:53.023Z,13.64
2018-08-25T22:23:22.374Z,13.65
2018-08-25T22:25:51.732Z,13.61
2018-08-25T22:28:21.105Z,13.61
2018-08-25T22:30:50.724Z,13.60
2018-08-25T22:33:19.880Z,13.61
2018-08-25T22:35:49.210Z,13.65
2018-08-25T22:38:26.070Z,13.62
2018-08-25T22:40:59.537Z,13.58
2018-08-25T22:43:28.744Z,13.57
2018-08-25T22:45:57.932Z,13.59
2018-08-25T22:48:27.129Z,13.58
2018-08-25T22:50:56.351Z,13.57
2018-08-25T22:53:25.616Z,13.61
2018-08-25T22:55:54.868Z,13.60
2018-08-25T22:58:24.051Z,13.65
2018-08-25T23:00:53.641Z,13.58
2018-08-25T23:03:22.967Z,13.55
2018-08-25T23:05:52.293Z,13.54
2018-08-25T23:08:21.494Z,13.51
2018-08-25T23:10:50.922Z,13.45
2018-08-25T23:13:20.233Z,13.43
2018-08-25T23:15:49.452Z,13.44
2018-08-25T23:18:18.720Z,13.42
2018-08-25T23:20:48.122Z,13.40
2018-08-25T23:23:17.540Z,13.38
2018-08-25T23:25:46.821Z,13.39
2018-08-25T23:28:16.137Z,13.39
2018-08-25T23:30:45.354Z,13.36
2018-08-25T23:33:18.376Z,13.33
2018-08-25T23:35:47.590Z,13.37
2018-08-25T23:38:17.013Z,13.38
2018-08-25T23:40:46.294Z,13.35
2018-08-25T23:43:15.748Z,13.31
2018-08-25T23:45:45.243Z,13.30
2018-08-25T23:48:14.634Z,13.25
2018-08-25T23:50:43.930Z,13.26
2018-08-25T23:53:13.473Z,13.29
2018-08-25T23:55:42.848Z,13.33
2018-08-25T23:58:12.095Z,13.36
